Time;durP1;ratioP1;P1;durP2;ratioP2;P2;SDS_P1;SDS_P2;PMS_P1;PMS_P2;Temp;Humidity;BMP_temperature;BMP_pressure;BME280_temperature;BME280_humidity;BME280_pressure;Samples;Min_cycle;Max_cycle;Signal;HPM_P1;HPM_P2
2024/02/21 00:05:56;;;;;;;28.50;12.10;;;;;;;4.49;100.00;99722.98;269970;1270;23497;-89
2024/02/21 00:11:59;;;;;;;28.00;12.40;;;;;;;4.38;100.00;99716.85;270838;1270;22569;-88
2024/02/21 00:18:00;;;;;;;30.90;13.10;;;;;;;4.26;100.00;99714.71;272592;1270;22407;-89
2024/02/21 00:24:02;;;;;;;24.70;11.40;;;;;;;4.15;100.00;99716.44;270767;1270;23458;-89
2024/02/21 00:30:03;;;;;;;27.40;12.20;;;;;;;4.04;100.00;99720.02;272700;1267;22302;-89
2024/02/21 00:36:04;;;;;;;24.40;13.40;;;;;;;4.00;100.00;99719.52;272570;1270;22988;-89
2024/02/21 00:42:07;;;;;;;28.10;13.80;;;;;;;4.07;100.00;99715.65;272350;1270;22491;-90
2024/02/21 00:48:08;;;;;;;38.30;14.90;;;;;;;4.12;100.00;99704.08;272549;1270;22474;-87
2024/02/21 00:54:09;;;;;;;33.20;14.90;;;;;;;4.13;100.00;99692.33;272644;1270;22210;-87
2024/02/21 01:00:11;;;;;;;28.00;14.70;;;;;;;4.07;100.00;99684.39;272547;1262;22688;-87
2024/02/21 01:06:12;;;;;;;27.90;12.80;;;;;;;3.99;100.00;99683.31;272408;1270;23283;-89
2024/02/21 01:12:13;;;;;;;23.20;10.80;;;;;;;3.87;100.00;99678.95;272549;1271;23399;-88
2024/02/21 01:18:15;;;;;;;30.70;11.80;;;;;;;3.72;100.00;99676.02;272583;1270;22350;-88
2024/02/21 01:24:16;;;;;;;32.70;12.90;;;;;;;3.63;100.00;99676.19;271642;1270;24049;-88
2024/02/21 01:30:19;;;;;;;27.50;12.00;;;;;;;3.59;100.00;99675.30;272587;1270;23436;-89
2024/02/21 01:36:20;;;;;;;37.00;13.20;;;;;;;3.56;100.00;99667.96;272395;1270;25202;-89
2024/02/21 01:42:22;;;;;;;20.60;10.40;;;;;;;3.55;100.00;99662.81;272029;1270;23311;-90
2024/02/21 01:48:23;;;;;;;25.10;10.80;;;;;;;3.52;100.00;99656.08;272480;1272;23130;-89
2024/02/21 01:54:25;;;;;;;28.10;9.80;;;;;;;3.48;100.00;99649.40;271617;1270;22524;-88
2024/02/21 02:00:26;;;;;;;18.60;8.80;;;;;;;3.51;100.00;99649.77;270563;1271;22541;-87
2024/02/21 02:06:28;;;;;;;24.10;10.50;;;;;;;3.54;100.00;99642.14;271454;1271;22163;-89
2024/02/21 02:12:29;;;;;;;22.80;10.20;;;;;;;3.58;100.00;99652.37;272559;1271;22604;-89
2024/02/21 02:18:30;;;;;;;20.30;10.10;;;;;;;3.62;100.00;99641.75;272382;1262;22415;-90
2024/02/21 02:24:31;;;;;;;26.70;10.70;;;;;;;3.68;100.00;99637.05;272641;1270;24198;-89
2024/02/21 02:37:23;;;;;;;22.10;9.80;;;;;;;3.80;100.00;99636.16;267468;1273;22266;-89
2024/02/21 02:43:25;;;;;;;21.10;9.70;;;;;;;3.83;100.00;99625.19;272042;1273;22411;-89
2024/02/21 02:49:27;;;;;;;22.20;9.40;;;;;;;3.79;100.00;99622.92;271932;1273;23546;-88
2024/02/21 02:55:29;;;;;;;23.70;10.80;;;;;;;3.74;100.00;99624.61;271107;1273;23617;-90
2024/02/21 03:01:34;;;;;;;26.70;10.70;;;;;;;3.72;100.00;99621.75;272091;1273;23034;-89
2024/02/21 03:07:36;;;;;;;24.20;10.70;;;;;;;3.75;100.00;99620.70;269280;1272;22571;-88
2024/02/21 03:13:38;;;;;;;21.10;10.20;;;;;;;3.75;100.00;99609.44;268930;1272;23715;-88
2024/02/21 03:19:40;;;;;;;21.90;9.00;;;;;;;3.78;100.00;99607.62;269178;1273;23551;-89
2024/02/21 03:25:41;;;;;;;22.70;10.50;;;;;;;3.79;100.00;99608.01;271791;1273;22206;-89
2024/02/21 03:31:43;;;;;;;23.60;9.00;;;;;;;3.79;100.00;99613.16;270208;1273;22214;-89
2024/02/21 03:37:46;;;;;;;22.20;9.10;;;;;;;3.79;100.00;99617.66;271360;1273;23098;-89
2024/02/21 03:43:48;;;;;;;24.30;10.70;;;;;;;3.82;100.00;99615.02;271574;1273;22557;-88
2024/02/21 03:49:50;;;;;;;25.00;8.70;;;;;;;3.84;100.00;99616.86;272043;1272;22213;-90
2024/02/21 03:55:52;;;;;;;32.10;10.70;;;;;;;3.85;100.00;99613.43;272019;1273;22239;-88
2024/02/21 04:01:55;;;;;;;27.50;8.60;;;;;;;3.87;100.00;99614.94;271885;1272;22205;-90
2024/02/21 04:07:58;;;;;;;24.20;9.40;;;;;;;3.91;100.00;99612.16;272057;1273;22210;-89
2024/02/21 04:14:00;;;;;;;28.70;9.30;;;;;;;3.92;100.00;99604.89;271885;1273;22733;-89
2024/02/21 04:20:07;;;;;;;21.50;7.80;;;;;;;3.91;100.00;99592.86;272051;1273;23146;-89
2024/02/21 04:26:09;;;;;;;24.30;8.10;;;;;;;3.90;100.00;99588.70;271593;1273;22600;-89
2024/02/21 04:32:11;;;;;;;27.90;8.60;;;;;;;3.92;100.00;99585.46;271943;1273;23936;-91
2024/02/21 04:38:14;;;;;;;23.60;7.90;;;;;;;3.93;100.00;99587.05;270266;1264;23875;-90
2024/02/21 04:44:16;;;;;;;20.40;7.40;;;;;;;3.92;100.00;99581.23;270430;1273;24089;-90
2024/02/21 04:50:17;;;;;;;19.00;7.00;;;;;;;3.92;100.00;99575.71;272183;1272;22528;-90
2024/02/21 04:56:19;;;;;;;20.00;8.50;;;;;;;3.90;100.00;99564.84;271818;1272;22947;-90
2024/02/21 05:02:24;;;;;;;20.50;6.80;;;;;;;3.87;100.00;99570.89;271676;1273;24008;-89
2024/02/21 05:08:28;;;;;;;24.70;8.00;;;;;;;3.87;100.00;99583.20;272048;1273;22671;-91
2024/02/21 05:14:30;;;;;;;17.80;7.20;;;;;;;3.87;100.00;99580.52;272088;1272;22409;-90
2024/02/21 05:20:32;;;;;;;21.00;6.30;;;;;;;3.90;100.00;99579.63;272074;1269;23077;-90
2024/02/21 05:26:59;;;;;;;18.20;8.10;;;;;;;3.92;100.00;99572.62;271870;1274;22402;-90
2024/02/21 05:33:12;;;;;;;16.80;7.50;;;;;;;3.94;100.00;99568.77;271414;1257;24169;-91
2024/02/21 05:39:14;;;;;;;22.50;8.30;;;;;;;3.94;100.00;99568.39;269671;1273;22841;-90
2024/02/21 05:45:16;;;;;;;16.60;7.50;;;;;;;3.92;100.00;99572.46;270501;1273;23896;-89
2024/02/21 05:51:20;;;;;;;21.40;8.00;;;;;;;3.92;100.00;99571.09;271934;1274;23102;-89
2024/02/21 05:57:22;;;;;;;21.60;8.60;;;;;;;3.94;100.00;99564.36;272064;1259;22395;-90
2024/02/21 06:03:24;;;;;;;18.50;7.30;;;;;;;3.93;100.00;99552.67;271957;1273;22306;-90
2024/02/21 06:09:26;;;;;;;19.00;7.50;;;;;;;3.93;100.00;99551.23;271974;1273;22487;-90
2024/02/21 06:15:28;;;;;;;21.60;7.70;;;;;;;3.92;100.00;99553.05;271804;1273;23201;-90
2024/02/21 06:21:30;;;;;;;22.70;9.10;;;;;;;3.94;100.00;99556.36;271857;1272;22468;-89
2024/02/21 06:27:32;;;;;;;21.10;8.00;;;;;;;3.97;100.00;99547.88;271978;1273;22252;-92
2024/02/21 06:33:34;;;;;;;14.50;7.90;;;;;;;4.01;100.00;99543.79;271942;1273;22462;-89
2024/02/21 06:39:37;;;;;;;26.10;9.80;;;;;;;4.07;100.00;99546.69;271894;1273;22415;-89
2024/02/21 06:45:39;;;;;;;27.40;11.70;;;;;;;4.35;100.00;99549.10;271950;1274;22439;-90
2024/02/21 06:51:42;;;;;;;26.50;12.70;;;;;;;4.66;100.00;99557.98;271972;1273;22218;-90
2024/02/21 06:57:44;;;;;;;22.30;9.80;;;;;;;4.69;100.00;99560.49;271745;1273;22406;-89
2024/02/21 07:03:46;;;;;;;16.40;8.00;;;;;;;4.66;100.00;99552.10;272052;1273;22311;-90
2024/02/21 07:09:48;;;;;;;16.80;8.20;;;;;;;4.66;100.00;99547.82;271838;1273;23301;-90
2024/02/21 07:15:50;;;;;;;18.40;8.90;;;;;;;4.87;100.00;99546.00;271861;1273;23696;-90
2024/02/21 07:21:52;;;;;;;19.80;9.10;;;;;;;5.22;100.00;99543.55;271155;1273;22745;-90
2024/02/21 07:27:55;;;;;;;21.90;9.10;;;;;;;5.54;100.00;99545.89;270836;1273;22655;-89
2024/02/21 07:33:57;;;;;;;20.10;7.10;;;;;;;5.78;100.00;99549.73;269780;1273;22585;-91
2024/02/21 07:39:59;;;;;;;21.30;7.60;;;;;;;5.92;100.00;99540.02;269820;1273;22620;-90
2024/02/21 07:46:01;;;;;;;14.40;7.10;;;;;;;6.36;100.00;99531.82;270594;1273;22563;-90
2024/02/21 07:52:04;;;;;;;14.70;7.40;;;;;;;6.71;100.00;99527.15;271879;1273;22208;-92
2024/02/21 07:58:06;;;;;;;17.10;6.80;;;;;;;7.06;100.00;99518.91;271896;1272;22201;-89
2024/02/21 08:04:08;;;;;;;14.70;6.60;;;;;;;7.28;100.00;99512.48;271990;1273;22404;-91
2024/02/21 08:10:10;;;;;;;11.50;5.60;;;;;;;7.59;100.00;99514.73;271957;1273;22787;-90
2024/02/21 08:16:12;;;;;;;11.90;6.30;;;;;;;8.12;100.00;99511.42;272187;1270;23526;-90
2024/02/21 08:22:14;;;;;;;14.60;6.10;;;;;;;8.04;100.00;99510.95;271654;1273;22563;-91
2024/02/21 08:28:16;;;;;;;10.40;5.50;;;;;;;7.90;100.00;99504.93;269065;1273;22406;-93
2024/02/21 08:34:18;;;;;;;11.30;5.00;;;;;;;7.81;100.00;99500.06;270155;1273;22202;-91
2024/02/21 08:40:21;;;;;;;13.10;5.40;;;;;;;8.09;100.00;99497.54;271923;1273;22385;-90
2024/02/21 08:46:24;;;;;;;14.80;4.80;;;;;;;8.52;100.00;99495.95;269952;1274;23406;-89
2024/02/21 08:52:26;;;;;;;15.30;6.50;;;;;;;8.71;100.00;99492.90;272028;1273;22389;-89
2024/02/21 08:58:27;;;;;;;13.10;4.70;;;;;;;8.75;100.00;99482.62;272023;1274;22393;-90
2024/02/21 09:04:30;;;;;;;8.60;3.80;;;;;;;9.30;100.00;99469.08;272046;1273;22427;-90
2024/02/21 09:10:34;;;;;;;11.60;3.80;;;;;;;9.65;100.00;99467.70;272064;1273;22330;-89
2024/02/21 09:16:39;;;;;;;8.90;3.60;;;;;;;9.59;100.00;99470.69;272078;1273;22400;-90
2024/02/21 09:22:41;;;;;;;8.90;3.40;;;;;;;9.55;100.00;99475.91;272174;1272;22182;-92
2024/02/21 09:28:52;;;;;;;6.60;3.40;;;;;;;9.89;100.00;99472.44;271453;1275;22301;-90
2024/02/21 09:34:55;;;;;;;7.20;3.30;;;;;;;10.50;100.00;99470.50;272405;1274;22327;-91
2024/02/21 09:41:25;;;;;;;7.10;3.70;;;;;;;10.83;100.00;99474.40;271804;1273;23770;-91
2024/02/21 09:47:39;;;;;;;11.10;3.30;;;;;;;10.89;100.00;99473.41;271828;1273;22566;-92
2024/02/21 09:53:42;;;;;;;10.50;3.70;;;;;;;11.39;100.00;99470.79;271790;1273;22327;-92
2024/02/21 09:59:45;;;;;;;8.20;3.50;;;;;;;12.14;100.00;99469.64;271289;1273;22568;-92
2024/02/21 10:05:49;;;;;;;7.50;2.90;;;;;;;12.49;100.00;99470.61;270477;1273;143005;-91
2024/02/21 10:12:15;;;;;;;5.60;2.90;;;;;;;12.47;99.94;99458.52;271895;1273;22206;-92
2024/02/21 10:18:18;;;;;;;5.70;2.60;;;;;;;12.19;100.00;99443.92;271680;1274;22525;-90
2024/02/21 10:24:28;;;;;;;7.70;2.60;;;;;;;12.60;99.81;99440.98;270718;1274;22822;-90
2024/02/21 10:30:53;;;;;;;7.30;2.90;;;;;;;12.60;95.19;99440.06;269825;1273;23136;-91
2024/02/21 10:37:34;;;;;;;6.30;2.70;;;;;;;13.39;95.84;99432.81;272219;1273;23291;-92
2024/02/21 10:43:40;;;;;;;5.80;2.60;;;;;;;13.91;92.07;99423.70;270153;1275;23197;-91
2024/02/21 10:49:47;;;;;;;6.80;2.20;;;;;;;13.24;89.79;99418.31;271610;1274;22215;-90
2024/02/21 10:55:56;;;;;;;4.20;2.50;;;;;;;12.84;88.87;99410.61;269236;1264;22557;-91
2024/02/21 11:02:49;;;;;;;6.80;2.90;;;;;;;12.42;87.53;99405.05;268905;1273;22543;-91
2024/02/21 11:16:25;;;;;;;8.10;2.80;;;;;;;12.40;87.16;99380.95;269263;1262;22591;-92
2024/02/21 11:22:31;;;;;;;6.80;2.70;;;;;;;12.35;85.39;99380.59;268775;1274;22636;-90
2024/02/21 11:28:33;;;;;;;7.00;2.90;;;;;;;11.94;85.02;99380.74;270131;1273;22369;-89
2024/02/21 11:34:35;;;;;;;8.20;3.50;;;;;;;11.55;85.61;99374.68;271955;1275;22957;-91
2024/02/21 11:47:08;;;;;;;7.60;4.10;;;;;;;11.37;85.37;99351.00;269918;1277;23030;-92
2024/02/21 11:53:24;;;;;;;11.10;4.50;;;;;;;11.50;85.24;99346.80;271262;1273;23558;-91
2024/02/21 12:07:24;;;;;;;;;;;;;;;;;;;;;
2024/02/21 12:14:03;;;;;;;12.30;4.40;;;;;;;10.91;83.53;99334.46;272670;1275;22532;-90
2024/02/21 12:20:08;;;;;;;9.90;3.90;;;;;;;10.84;84.66;99325.67;270188;1273;22297;-91
2024/02/21 12:33:52;;;;;;;12.20;4.80;;;;;;;10.84;84.90;99321.44;269894;1273;22572;-90
2024/02/21 12:39:57;;;;;;;12.70;3.30;;;;;;;10.90;84.41;99319.98;270286;1275;23092;-90
2024/02/21 12:46:11;;;;;;;7.00;3.20;;;;;;;10.89;83.21;99320.59;270946;1275;22676;-92
2024/02/21 12:52:21;;;;;;;10.80;4.40;;;;;;;10.82;82.74;99314.86;270130;1275;22573;-90
2024/02/21 12:58:39;;;;;;;8.90;3.30;;;;;;;10.73;82.28;99308.45;269514;1275;22613;-92
2024/02/21 13:05:05;;;;;;;;;;;;;;;;;;;;;
2024/02/21 13:11:12;;;;;;;7.60;3.50;;;;;;;10.58;81.17;99292.40;270276;1274;22336;-91
2024/02/21 13:17:34;;;;;;;9.00;3.80;;;;;;;10.32;80.91;99287.98;272291;1273;22181;-91
2024/02/21 13:23:56;;;;;;;8.50;4.00;;;;;;;10.06;80.77;99293.53;270994;1273;22643;-92
2024/02/21 13:30:15;;;;;;;;;;;;;;;;;;;;;
2024/02/21 13:36:22;;;;;;;14.70;6.10;;;;;;;9.70;82.22;99286.47;271386;1273;22553;-91
2024/02/21 13:42:49;;;;;;;;;;;;;;;;;;;;;
2024/02/21 13:48:56;;;;;;;11.60;4.40;;;;;;;9.44;83.33;99275.56;269609;1273;22544;-91
2024/02/21 13:55:03;;;;;;;11.00;4.40;;;;;;;9.29;84.01;99272.45;270602;1273;23594;-91
2024/02/21 14:01:36;;;;;;;9.70;4.70;;;;;;;9.17;84.99;99265.80;269749;1273;23246;-91
2024/02/21 14:07:45;;;;;;;11.00;4.60;;;;;;;9.04;85.07;99257.02;271357;1274;22219;-92
2024/02/21 14:13:47;;;;;;;10.30;4.80;;;;;;;8.93;85.46;99253.59;271790;1273;25287;-91
2024/02/21 14:19:49;;;;;;;7.90;4.60;;;;;;;8.81;85.79;99258.54;270315;1272;25395;-91
2024/02/21 14:25:55;;;;;;;10.10;5.10;;;;;;;8.68;86.21;99253.26;270276;1273;24375;-91
2024/02/21 14:32:00;;;;;;;8.50;5.00;;;;;;;8.48;86.15;99245.60;269996;1273;22228;-93
2024/02/21 14:38:05;;;;;;;;;;;;;;;8.37;87.29;99242.17;272165;1273;22463;-90
2024/02/21 14:44:23;;;;;;;10.80;5.10;;;;;;;8.31;87.78;99239.09;270311;1262;22933;-92
2024/02/21 14:50:27;;;;;;;8.90;4.90;;;;;;;8.16;88.29;99232.91;270677;1273;22518;-90
2024/02/21 14:56:31;;;;;;;10.50;4.80;;;;;;;8.04;89.11;99227.48;269862;1274;22220;-90
2024/02/21 15:02:43;;;;;;;10.50;5.00;;;;;;;7.93;89.18;99217.39;270994;1273;23827;-93
2024/02/21 15:08:45;;;;;;;10.90;5.10;;;;;;;7.87;89.91;99211.24;272675;1277;22217;-91
2024/02/21 15:14:46;;;;;;;9.60;5.30;;;;;;;7.80;90.21;99201.18;270416;1274;22400;-91
2024/02/21 15:20:48;;;;;;;11.50;5.30;;;;;;;7.72;91.30;99198.17;269863;1272;22388;-90
2024/02/21 15:26:50;;;;;;;10.20;4.60;;;;;;;7.68;91.95;99197.45;270365;1273;22498;-92
2024/02/21 15:32:55;;;;;;;10.60;4.60;;;;;;;7.65;91.72;99187.94;272354;1273;23460;-91
2024/02/21 15:39:02;;;;;;;13.60;5.20;;;;;;;7.61;91.91;99182.85;272096;1273;22463;-91
2024/02/21 15:45:04;;;;;;;;;;;;;;;7.58;92.59;99174.54;272876;1278;22396;-91
2024/02/21 15:51:11;;;;;;;11.70;5.10;;;;;;;7.52;92.99;99168.86;272284;1275;22198;-90
2024/02/21 15:57:15;;;;;;;9.10;5.10;;;;;;;7.38;92.93;99167.48;272252;1273;22170;-91
2024/02/21 16:03:17;;;;;;;10.30;5.50;;;;;;;7.28;93.50;99175.35;272105;1272;23964;-90
2024/02/21 16:09:20;;;;;;;14.80;6.80;;;;;;;7.21;93.95;99176.89;271907;1274;22326;-90
2024/02/21 16:15:22;;;;;;;12.20;6.70;;;;;;;7.16;94.36;99177.23;271873;1275;22444;-90
2024/02/21 16:21:36;;;;;;;14.30;6.70;;;;;;;7.13;94.34;99170.98;271166;1274;22563;-93
2024/02/21 16:27:41;;;;;;;11.80;6.50;;;;;;;7.03;94.29;99160.62;270857;1274;22577;-91
2024/02/21 16:33:47;;;;;;;11.00;5.90;;;;;;;6.94;94.90;99152.74;270565;1273;22845;-91
2024/02/21 16:39:58;;;;;;;16.90;7.60;;;;;;;6.90;95.22;99147.73;271111;1273;22573;-91
2024/02/21 16:46:09;;;;;;;13.10;7.10;;;;;;;6.85;96.02;99147.59;270478;1275;23279;-92
2024/02/21 16:52:12;;;;;;;15.40;7.10;;;;;;;6.81;96.13;99144.20;269823;1275;22535;-92
2024/02/21 16:58:30;;;;;;;16.00;7.60;;;;;;;6.72;95.98;99143.34;254751;1274;10001994;-91
2024/02/21 17:04:45;;;;;;;13.90;7.20;;;;;;;6.67;96.43;99144.42;270263;1273;22232;-91
2024/02/21 17:10:52;;;;;;;17.10;8.30;;;;;;;6.64;96.60;99132.73;271660;1275;22569;-92
2024/02/21 17:16:56;;;;;;;16.30;7.90;;;;;;;6.60;96.92;99129.29;271244;1274;22387;-92
2024/02/21 17:23:12;;;;;;;18.40;8.50;;;;;;;6.53;96.86;99123.04;272167;1272;22685;-91
2024/02/21 17:29:20;;;;;;;18.70;8.70;;;;;;;6.46;97.37;99116.55;270835;1274;22288;-92
2024/02/21 17:35:27;;;;;;;15.30;7.50;;;;;;;6.38;97.30;99107.07;272022;1275;23033;-91
2024/02/21 17:41:37;;;;;;;18.20;7.70;;;;;;;6.25;97.35;99093.48;271570;1274;22551;-93
2024/02/21 17:47:48;;;;;;;14.70;6.80;;;;;;;6.14;97.63;99091.58;271523;1274;22402;-91
2024/02/21 17:53:50;;;;;;;15.40;7.10;;;;;;;6.03;97.83;99083.65;272025;1273;22528;-89
2024/02/21 17:59:53;;;;;;;13.20;6.10;;;;;;;5.90;98.05;99075.63;271196;1274;23123;-92
2024/02/21 18:06:03;;;;;;;12.30;5.90;;;;;;;5.79;98.35;99071.00;270576;1273;22440;-90
2024/02/21 18:12:05;;;;;;;12.60;5.60;;;;;;;5.64;98.54;99066.80;271982;1273;22324;-90
2024/02/21 18:18:10;;;;;;;13.50;6.40;;;;;;;5.50;98.90;99062.32;272671;1277;22992;-91
2024/02/21 18:24:15;;;;;;;12.80;6.70;;;;;;;5.40;99.24;99056.42;271889;1273;22298;-90
2024/02/21 18:30:17;;;;;;;13.20;6.80;;;;;;;5.27;99.38;99048.00;272004;1273;22228;-90
2024/02/21 18:36:20;;;;;;;15.00;6.40;;;;;;;5.11;99.56;99045.84;271937;1273;22216;-91
2024/02/21 18:42:25;;;;;;;15.00;6.30;;;;;;;4.98;99.83;99038.66;271875;1273;23514;-91
2024/02/21 18:48:32;;;;;;;24.10;9.20;;;;;;;4.91;100.00;99042.24;271234;1273;22299;-91
2024/02/21 18:54:44;;;;;;;25.20;10.30;;;;;;;4.84;100.00;99043.69;271793;1273;23364;-91
2024/02/21 19:00:51;;;;;;;22.70;9.30;;;;;;;4.78;100.00;99039.30;270778;1273;22407;-91
2024/02/21 19:07:13;;;;;;;24.80;11.30;;;;;;;4.70;100.00;99030.04;272150;1271;22318;-92
2024/02/21 19:13:23;;;;;;;17.30;8.90;;;;;;;4.58;100.00;99019.55;271517;1273;22455;-90
2024/02/21 19:19:28;;;;;;;23.00;9.80;;;;;;;4.47;100.00;99011.80;271964;1273;22840;-92
2024/02/21 19:25:34;;;;;;;16.90;8.10;;;;;;;4.38;100.00;98999.23;271700;1272;23131;-91
2024/02/21 19:31:41;;;;;;;19.20;9.40;;;;;;;4.30;100.00;98995.41;271923;1273;22366;-91
2024/02/21 19:37:45;;;;;;;18.20;9.10;;;;;;;4.21;100.00;98995.09;272062;1274;22211;-91
2024/02/21 19:43:47;;;;;;;22.30;9.40;;;;;;;4.08;100.00;98982.30;270900;1273;22810;-91
2024/02/21 19:49:49;;;;;;;22.40;10.50;;;;;;;4.02;100.00;98974.89;270046;1272;22546;-91
2024/02/21 19:55:51;;;;;;;23.80;10.20;;;;;;;4.13;100.00;98974.51;270463;1273;22417;-91
2024/02/21 20:01:55;;;;;;;17.50;8.20;;;;;;;4.16;100.00;98972.77;271797;1272;23326;-90
2024/02/21 20:07:57;;;;;;;19.90;8.10;;;;;;;4.17;100.00;98971.58;271859;1273;23299;-91
2024/02/21 20:13:59;;;;;;;17.10;8.40;;;;;;;4.23;100.00;98961.93;272021;1273;23063;-91
2024/02/21 20:20:02;;;;;;;18.90;7.80;;;;;;;4.19;100.00;98954.60;271993;1273;22381;-91
2024/02/21 20:26:05;;;;;;;17.80;7.40;;;;;;;4.08;100.00;98956.06;271816;1273;22338;-92
2024/02/21 20:32:07;;;;;;;19.30;8.30;;;;;;;4.05;100.00;98962.83;270407;1273;22552;-91
2024/02/21 20:38:09;;;;;;;20.20;8.60;;;;;;;4.11;100.00;98957.33;271890;1265;22459;-91
2024/02/21 20:44:11;;;;;;;30.00;12.10;;;;;;;4.02;100.00;98949.27;271919;1273;23851;-91
2024/02/21 20:50:14;;;;;;;33.50;13.50;;;;;;;3.95;100.00;98936.40;272015;1273;22352;-90
2024/02/21 20:56:16;;;;;;;26.70;13.10;;;;;;;3.91;100.00;98927.66;271985;1273;22493;-91
2024/02/21 21:02:17;;;;;;;29.70;11.10;;;;;;;3.87;100.00;98920.77;271986;1272;23124;-90
2024/02/21 21:08:20;;;;;;;20.60;10.20;;;;;;;3.83;100.00;98916.76;271873;1273;23700;-90
2024/02/21 21:14:30;;;;;;;28.80;12.40;;;;;;;3.80;100.00;98912.70;271969;1273;22685;-90
2024/02/21 21:20:36;;;;;;;27.20;11.30;;;;;;;3.76;100.00;98912.27;271931;1273;22204;-92
2024/02/21 21:26:38;;;;;;;21.80;10.50;;;;;;;3.77;100.00;98908.19;272028;1273;22281;-90
2024/02/21 21:32:41;;;;;;;19.60;8.20;;;;;;;3.78;100.00;98898.65;272012;1273;23000;-92
2024/02/21 21:38:47;;;;;;;16.30;6.80;;;;;;;3.84;100.00;98890.95;271854;1273;22373;-90
2024/02/21 21:44:53;;;;;;;15.60;7.30;;;;;;;3.95;100.00;98881.69;271906;1273;22279;-91
2024/02/21 21:50:55;;;;;;;14.80;6.80;;;;;;;4.02;100.00;98869.61;271906;1273;22398;-91
2024/02/21 21:56:57;;;;;;;14.70;6.10;;;;;;;4.12;100.00;98860.30;271692;1272;23483;-91
2024/02/21 22:02:59;;;;;;;12.50;5.90;;;;;;;4.35;100.00;98848.33;271946;1272;136944;-91
2024/02/21 22:09:01;;;;;;;15.70;5.90;;;;;;;4.55;100.00;98838.97;272111;1273;22271;-93
2024/02/21 22:15:06;;;;;;;15.10;7.20;;;;;;;4.72;100.00;98834.24;272105;1273;22249;-92
2024/02/21 22:21:10;;;;;;;18.30;7.60;;;;;;;4.84;100.00;98831.69;271915;1273;22617;-91
2024/02/21 22:27:12;;;;;;;14.80;6.90;;;;;;;4.86;100.00;98826.08;271895;1260;24590;-91
2024/02/21 22:33:14;;;;;;;14.00;6.90;;;;;;;4.79;100.00;98819.83;271732;1273;23824;-91
2024/02/21 22:39:16;;;;;;;12.10;6.40;;;;;;;4.76;100.00;98806.49;271699;1273;22683;-92
2024/02/21 22:45:18;;;;;;;13.60;7.10;;;;;;;4.78;100.00;98796.08;270846;1273;22696;-91
2024/02/21 22:51:20;;;;;;;17.50;6.70;;;;;;;4.72;100.00;98782.95;269168;1273;22560;-92
2024/02/21 22:57:23;;;;;;;14.40;6.10;;;;;;;4.58;100.00;98769.37;271662;1273;22326;-91
2024/02/21 23:03:25;;;;;;;17.60;5.90;;;;;;;4.45;100.00;98762.23;272052;1273;23322;-91
2024/02/21 23:09:27;;;;;;;12.30;6.20;;;;;;;4.28;100.00;98760.83;270689;1273;25374;-91
2024/02/21 23:15:30;;;;;;;25.10;8.40;;;;;;;4.13;100.00;98749.27;271770;1273;22391;-91
2024/02/21 23:21:31;;;;;;;18.50;6.90;;;;;;;4.01;100.00;98741.98;271743;1273;22219;-91
2024/02/21 23:27:35;;;;;;;26.50;8.40;;;;;;;3.87;100.00;98741.49;270488;1273;22197;-90
2024/02/21 23:33:36;;;;;;;25.40;9.60;;;;;;;3.66;100.00;98736.23;272158;1273;22249;-92
2024/02/21 23:39:39;;;;;;;21.20;8.40;;;;;;;3.52;100.00;98726.72;272189;1273;22419;-92
2024/02/21 23:45:41;;;;;;;15.70;6.40;;;;;;;3.40;100.00;98721.38;271673;1273;22344;-91
2024/02/21 23:52:00;;;;;;;13.40;6.40;;;;;;;3.28;100.00;98708.02;271702;1273;22448;-90
2024/02/21 23:59:07;;;;;;;13.00;6.70;;;;;;;3.14;100.00;98697.18;270396;1270;22231;-92
